createdAt,value
2022-10-22T00:01:20.177Z,14.66
2022-10-22T00:03:47.914Z,14.71
2022-10-22T00:06:15.474Z,14.79
2022-10-22T00:08:43.236Z,14.85
2022-10-22T00:11:12.976Z,14.63
2022-10-22T00:13:42.792Z,14.58
2022-10-22T00:16:10.949Z,14.60
2022-10-22T00:18:38.994Z,14.63
2022-10-22T00:21:07.659Z,14.52
2022-10-22T00:23:35.765Z,14.52
2022-10-22T00:26:03.274Z,14.55
2022-10-22T00:28:30.833Z,14.64
2022-10-22T00:31:01.590Z,14.74
2022-10-22T00:33:30.362Z,14.68
2022-10-22T00:35:58.054Z,14.66
2022-10-22T00:38:25.675Z,14.71
2022-10-22T00:40:53.218Z,14.78
2022-10-22T00:43:21.361Z,14.87
2022-10-22T00:45:48.937Z,14.82
2022-10-22T00:48:20.942Z,14.87
2022-10-22T00:50:55.530Z,14.86
2022-10-22T00:53:27.019Z,14.87
2022-10-22T00:55:55.743Z,14.87
2022-10-22T00:58:29.052Z,14.79
2022-10-22T01:00:58.030Z,14.79
2022-10-22T01:03:27.032Z,14.75
2022-10-22T01:05:58.002Z,14.79
2022-10-22T01:08:33.867Z,14.81
2022-10-22T01:11:13.580Z,14.81
2022-10-22T01:13:54.372Z,14.89
2022-10-22T01:16:31.365Z,14.82
2022-10-22T01:19:12.360Z,14.80
2022-10-22T01:21:44.939Z,14.81
2022-10-22T01:24:45.960Z,14.90
2022-10-22T01:27:25.239Z,14.91
2022-10-22T01:29:57.595Z,15.00
2022-10-22T01:32:27.042Z,14.96
2022-10-22T01:34:58.175Z,15.02
2022-10-22T01:37:30.446Z,15.00
2022-10-22T01:40:00.586Z,15.03
2022-10-22T01:42:28.298Z,15.07
2022-10-22T01:44:57.187Z,15.07
2022-10-22T01:47:40.224Z,15.05
2022-10-22T01:50:24.995Z,15.01
2022-10-22T01:53:02.547Z,15.00
2022-10-22T01:55:37.282Z,14.95
2022-10-22T01:58:19.447Z,15.01
2022-10-22T02:00:55.620Z,14.99
2022-10-22T02:03:29.158Z,15.06
2022-10-22T02:06:00.686Z,15.04
2022-10-22T02:08:32.048Z,14.99
2022-10-22T02:11:01.853Z,14.95
2022-10-22T02:13:32.909Z,14.88
2022-10-22T02:16:04.441Z,14.91
2022-10-22T02:18:36.414Z,14.80
2022-10-22T02:23:36.279Z,14.66
2022-10-22T02:26:11.051Z,14.64
2022-10-22T02:28:45.472Z,14.61
2022-10-22T02:31:19.192Z,14.62
2022-10-22T02:33:50.029Z,14.59
2022-10-22T02:36:18.936Z,14.62
2022-10-22T02:38:48.574Z,14.62
2022-10-22T02:41:17.008Z,14.60
2022-10-22T02:43:46.500Z,14.59
2022-10-22T02:46:15.789Z,14.65
2022-10-22T02:48:43.494Z,14.63
2022-10-22T02:51:11.023Z,14.66
2022-10-22T02:53:38.575Z,14.56
2022-10-22T02:56:06.674Z,14.58
2022-10-22T02:58:34.265Z,14.54
2022-10-22T03:01:02.143Z,14.56
2022-10-22T03:03:31.099Z,14.52
2022-10-22T03:05:58.723Z,14.52
2022-10-22T03:08:26.449Z,14.55
2022-10-22T03:10:54.156Z,14.55
2022-10-22T03:13:21.782Z,14.61
2022-10-22T03:15:50.235Z,14.61
2022-10-22T03:18:17.899Z,14.59
2022-10-22T03:20:46.878Z,14.61
2022-10-22T03:23:17.778Z,14.62
2022-10-22T03:25:47.955Z,14.60
2022-10-22T03:28:18.084Z,14.67
2022-10-22T03:30:45.647Z,14.65
2022-10-22T03:33:13.162Z,14.63
2022-10-22T03:35:46.404Z,14.64
2022-10-22T03:38:15.878Z,14.67
2022-10-22T03:40:45.319Z,14.70
2022-10-22T03:43:13.461Z,14.75
2022-10-22T03:45:40.979Z,14.77
2022-10-22T03:48:08.761Z,14.77
2022-10-22T03:50:36.329Z,14.76
2022-10-22T03:53:04.504Z,14.75
2022-10-22T03:55:33.384Z,14.70
2022-10-22T03:58:00.925Z,14.72
2022-10-22T04:00:28.500Z,14.67
2022-10-22T04:02:56.070Z,14.58
2022-10-22T04:05:23.588Z,14.61
2022-10-22T04:07:51.142Z,14.63
2022-10-22T04:10:18.938Z,14.63
2022-10-22T04:12:49.600Z,14.76
2022-10-22T04:15:17.441Z,14.72
2022-10-22T04:17:45.152Z,14.70
2022-10-22T04:20:12.785Z,14.62
2022-10-22T04:22:40.347Z,14.58
2022-10-22T04:25:08.480Z,14.55
2022-10-22T04:27:37.754Z,14.52
2022-10-22T04:30:08.175Z,14.53
2022-10-22T04:32:35.767Z,14.49
2022-10-22T04:35:03.457Z,14.41
2022-10-22T04:37:32.810Z,14.36
2022-10-22T04:40:00.341Z,14.38
2022-10-22T04:42:28.018Z,14.38
2022-10-22T04:44:55.530Z,14.36
2022-10-22T04:47:24.450Z,14.38
2022-10-22T04:49:51.977Z,14.41
2022-10-22T04:52:19.539Z,14.32
2022-10-22T04:54:48.072Z,14.33
2022-10-22T04:57:15.609Z,14.34
2022-10-22T04:59:43.156Z,14.40
2022-10-22T05:02:10.662Z,14.41
2022-10-22T05:04:39.522Z,14.39
2022-10-22T05:07:07.036Z,14.42
2022-10-22T05:09:34.534Z,14.44
2022-10-22T05:12:02.081Z,14.44
2022-10-22T05:14:29.720Z,14.45
2022-10-22T05:16:57.248Z,14.45
2022-10-22T05:19:27.517Z,14.52
2022-10-22T05:21:58.767Z,14.57
2022-10-22T05:24:27.547Z,14.54
2022-10-22T05:26:57.472Z,14.51
2022-10-22T05:29:25.710Z,14.56
2022-10-22T05:31:53.406Z,14.57
2022-10-22T05:34:21.087Z,14.52
2022-10-22T05:36:48.706Z,14.48
2022-10-22T05:39:17.665Z,14.48
2022-10-22T05:41:45.221Z,14.57
2022-10-22T05:44:13.886Z,14.49
2022-10-22T05:46:43.207Z,14.45
2022-10-22T05:49:14.776Z,14.39
2022-10-22T05:51:42.466Z,14.45
2022-10-22T05:54:16.551Z,14.39
2022-10-22T05:56:45.501Z,14.37
2022-10-22T05:59:13.044Z,14.39
2022-10-22T06:01:41.187Z,14.38
2022-10-22T06:04:11.669Z,14.41
2022-10-22T06:06:42.003Z,14.45
2022-10-22T06:09:16.721Z,14.46
2022-10-22T06:11:45.901Z,14.53
2022-10-22T06:14:13.841Z,14.51
2022-10-22T06:16:41.818Z,14.47
2022-10-22T06:19:10.950Z,14.52
2022-10-22T06:21:38.935Z,14.53
2022-10-22T06:24:07.261Z,14.63
2022-10-22T06:26:34.852Z,14.58
2022-10-22T06:29:03.783Z,14.51
2022-10-22T06:31:36.524Z,14.39
2022-10-22T06:34:04.188Z,14.24
2022-10-22T06:36:31.926Z,14.13
2022-10-22T06:38:59.652Z,14.10
2022-10-22T06:41:29.873Z,14.07
2022-10-22T06:43:58.365Z,14.12
2022-10-22T06:46:27.826Z,14.08
2022-10-22T06:48:57.018Z,14.10
2022-10-22T06:51:24.909Z,14.11
2022-10-22T06:53:52.735Z,14.27
2022-10-22T06:56:23.560Z,14.53
2022-10-22T06:58:52.296Z,14.60
2022-10-22T07:01:21.912Z,14.62
2022-10-22T07:03:52.140Z,14.89
2022-10-22T07:06:20.333Z,15.22
2022-10-22T07:08:48.190Z,15.48
2022-10-22T07:11:18.486Z,15.62
2022-10-22T07:13:46.588Z,15.84
2022-10-22T07:16:14.779Z,16.05
2022-10-22T07:18:44.515Z,16.10
2022-10-22T07:21:15.038Z,16.68
2022-10-22T07:23:42.975Z,17.53
2022-10-22T07:26:10.866Z,17.75
2022-10-22T07:28:40.923Z,18.26
2022-10-22T07:31:09.776Z,18.89
2022-10-22T07:33:38.394Z,18.88
2022-10-22T07:36:08.493Z,19.07
2022-10-22T07:38:37.649Z,19.38
2022-10-22T07:41:05.687Z,19.48
2022-10-22T07:43:33.292Z,19.69
2022-10-22T07:46:02.700Z,19.95
2022-10-22T07:48:30.304Z,19.90
2022-10-22T07:50:58.249Z,20.02
2022-10-22T07:53:25.984Z,20.40
2022-10-22T07:55:54.977Z,20.43
2022-10-22T07:58:24.893Z,20.65
2022-10-22T08:00:52.561Z,20.59
2022-10-22T08:03:20.142Z,20.60
2022-10-22T08:05:48.521Z,20.60
2022-10-22T08:08:18.132Z,20.84
2022-10-22T08:10:46.872Z,20.33
2022-10-22T08:13:16.238Z,20.47
2022-10-22T08:18:16.880Z,20.41
2022-10-22T08:20:44.759Z,20.15
2022-10-22T08:23:12.434Z,20.65
2022-10-22T08:25:40.014Z,20.00
2022-10-22T08:28:07.572Z,19.83
2022-10-22T08:30:38.533Z,19.04
2022-10-22T08:33:06.668Z,18.64
2022-10-22T08:35:34.374Z,18.05
2022-10-22T08:38:02.062Z,18.10
2022-10-22T08:40:33.357Z,17.83
2022-10-22T08:43:24.205Z,17.87
2022-10-22T08:46:05.988Z,17.78
2022-10-22T08:48:44.129Z,17.76
2022-10-22T08:51:15.801Z,17.88
2022-10-22T08:53:52.610Z,17.67
2022-10-22T08:56:24.166Z,17.31
2022-10-22T08:58:56.871Z,17.31
2022-10-22T09:01:34.079Z,17.22
2022-10-22T09:04:07.735Z,17.23
2022-10-22T09:06:37.753Z,17.31
2022-10-22T09:09:12.091Z,17.33
2022-10-22T09:11:41.918Z,17.37
2022-10-22T09:17:03.332Z,17.48
2022-10-22T09:19:38.613Z,17.66
2022-10-22T09:22:16.440Z,17.61
2022-10-22T09:24:46.764Z,17.49
2022-10-22T09:27:17.238Z,17.61
2022-10-22T09:29:46.051Z,17.81
2022-10-22T09:32:15.588Z,17.88
2022-10-22T09:34:45.771Z,17.83
2022-10-22T09:37:16.848Z,17.73
2022-10-22T09:39:47.177Z,17.81
2022-10-22T09:42:16.952Z,17.71
2022-10-22T09:44:47.776Z,17.69
2022-10-22T09:47:42.883Z,17.56
2022-10-22T09:50:22.996Z,17.55
2022-10-22T09:53:01.640Z,17.59
2022-10-22T09:55:29.570Z,17.61
2022-10-22T09:57:59.757Z,17.62
2022-10-22T10:00:28.731Z,17.66
2022-10-22T10:02:58.839Z,17.54
2022-10-22T10:05:29.132Z,17.70
2022-10-22T10:07:56.875Z,17.71
2022-10-22T10:10:34.815Z,17.82
2022-10-22T10:13:15.754Z,17.76
2022-10-22T10:15:50.023Z,17.78
2022-10-22T10:18:31.414Z,17.92
2022-10-22T10:21:10.512Z,17.92
2022-10-22T10:23:49.514Z,18.05
2022-10-22T10:26:23.306Z,17.87
2022-10-22T10:29:09.979Z,17.94
2022-10-22T10:31:49.759Z,17.92
2022-10-22T10:34:30.762Z,18.11
2022-10-22T10:37:14.570Z,18.30
2022-10-22T10:40:03.895Z,18.05
2022-10-22T10:42:37.734Z,18.00
2022-10-22T10:45:17.507Z,18.29
2022-10-22T10:48:08.431Z,18.52
2022-10-22T10:50:50.589Z,18.53
2022-10-22T10:53:26.566Z,18.13
2022-10-22T10:56:02.722Z,18.04
2022-10-22T10:58:40.271Z,18.00
2022-10-22T11:01:16.976Z,18.19
2022-10-22T11:04:18.833Z,18.17
2022-10-22T11:06:47.922Z,18.24
2022-10-22T11:09:25.612Z,18.39
2022-10-22T11:11:58.302Z,18.39
2022-10-22T11:14:32.958Z,18.45
2022-10-22T11:17:06.049Z,18.58
2022-10-22T11:19:57.816Z,18.62
2022-10-22T11:22:35.171Z,18.58
2022-10-22T11:25:15.204Z,18.31
2022-10-22T11:27:48.874Z,18.52
2022-10-22T11:30:18.900Z,18.83
2022-10-22T11:32:50.575Z,19.28
2022-10-22T11:35:25.835Z,19.87
2022-10-22T11:37:57.105Z,19.93
2022-10-22T11:40:34.262Z,19.87
2022-10-22T11:43:06.963Z,19.76
2022-10-22T11:45:38.987Z,19.79
2022-10-22T11:48:16.552Z,19.44
2022-10-22T11:50:53.002Z,19.34
2022-10-22T11:53:31.588Z,19.30
2022-10-22T11:56:04.493Z,19.27
2022-10-22T11:58:44.240Z,19.39
2022-10-22T12:01:23.895Z,19.52
2022-10-22T12:03:53.589Z,19.42
2022-10-22T12:06:24.275Z,19.50
2022-10-22T12:09:01.273Z,19.18
2022-10-22T12:11:36.406Z,19.13
2022-10-22T12:14:17.075Z,18.90
2022-10-22T12:17:02.238Z,18.88
2022-10-22T12:19:32.816Z,18.91
2022-10-22T12:22:07.425Z,18.77
2022-10-22T12:24:40.474Z,18.84
2022-10-22T12:27:22.223Z,19.02
2022-10-22T12:29:54.540Z,19.16
2022-10-22T12:32:22.319Z,19.21
2022-10-22T12:34:51.516Z,19.42
2022-10-22T12:37:20.566Z,19.48
2022-10-22T12:39:49.510Z,19.61
2022-10-22T12:42:19.222Z,19.57
2022-10-22T12:44:46.874Z,19.53
2022-10-22T12:47:17.685Z,19.73
2022-10-22T12:49:48.845Z,19.93
2022-10-22T12:52:19.676Z,20.24
2022-10-22T12:54:54.438Z,20.34
2022-10-22T12:57:24.182Z,20.32
2022-10-22T12:59:52.986Z,20.40
2022-10-22T13:02:24.356Z,20.36
2022-10-22T13:05:27.338Z,19.84
2022-10-22T13:08:02.570Z,19.60
2022-10-22T13:10:36.688Z,19.46
2022-10-22T13:13:06.739Z,19.57
2022-10-22T13:15:40.177Z,19.71
2022-10-22T13:18:17.765Z,19.87
2022-10-22T13:20:53.152Z,19.70
2022-10-22T13:23:22.490Z,19.80
2022-10-22T13:26:01.210Z,19.75
2022-10-22T13:28:30.142Z,20.01
2022-10-22T13:31:00.205Z,20.09
2022-10-22T13:33:31.059Z,19.86
2022-10-22T13:35:59.232Z,19.86
2022-10-22T13:38:28.282Z,19.76
2022-10-22T13:40:56.474Z,19.66
2022-10-22T13:43:26.066Z,19.81
2022-10-22T13:45:56.792Z,19.90
2022-10-22T13:48:25.960Z,19.79
2022-10-22T13:50:54.351Z,19.62
2022-10-22T13:53:24.608Z,19.57
2022-10-22T13:55:52.213Z,19.54
2022-10-22T13:58:21.285Z,19.43
2022-10-22T14:00:54.330Z,19.34
2022-10-22T14:03:24.636Z,19.38
2022-10-22T14:05:52.251Z,19.34
2022-10-22T14:08:23.138Z,19.46
2022-10-22T14:10:50.659Z,19.51
2022-10-22T14:13:21.228Z,19.38
2022-10-22T14:15:52.283Z,19.36
2022-10-22T14:18:25.452Z,19.25
2022-10-22T14:20:55.003Z,19.14
2022-10-22T14:23:25.231Z,19.01
2022-10-22T14:25:52.958Z,18.95
2022-10-22T14:28:20.822Z,18.83
2022-10-22T14:30:50.615Z,18.88
2022-10-22T14:33:23.158Z,19.07
2022-10-22T14:35:53.472Z,19.29
2022-10-22T14:38:21.385Z,19.37
2022-10-22T14:40:49.603Z,19.41
2022-10-22T14:43:21.825Z,19.33
2022-10-22T14:45:50.862Z,19.36
2022-10-22T14:50:48.316Z,19.09
2022-10-22T14:53:17.597Z,18.90
2022-10-22T14:55:49.163Z,18.95
2022-10-22T14:58:16.880Z,19.00
2022-10-22T15:00:45.215Z,19.10
2022-10-22T15:03:14.120Z,19.22
2022-10-22T15:05:43.921Z,19.48
2022-10-22T15:08:11.739Z,19.36
2022-10-22T15:10:40.100Z,19.32
2022-10-22T15:13:07.895Z,19.16
2022-10-22T15:15:39.598Z,19.04
2022-10-22T15:18:07.723Z,18.88
2022-10-22T15:20:36.757Z,18.68
2022-10-22T15:23:04.344Z,18.47
2022-10-22T15:25:31.934Z,18.27
2022-10-22T15:28:02.093Z,18.08
2022-10-22T15:30:36.685Z,17.91
2022-10-22T15:33:04.297Z,17.76
2022-10-22T15:35:31.937Z,17.60
2022-10-22T15:38:00.862Z,17.47
2022-10-22T15:40:28.441Z,17.37
2022-10-22T15:42:56.008Z,17.31
2022-10-22T15:45:24.953Z,17.24
2022-10-22T15:47:52.563Z,17.22
2022-10-22T15:50:20.096Z,17.22
2022-10-22T15:52:47.615Z,17.24
2022-10-22T15:55:17.267Z,17.26
2022-10-22T15:57:45.110Z,17.31
2022-10-22T16:00:13.688Z,17.33
2022-10-22T16:02:41.488Z,17.37
2022-10-22T16:05:09.942Z,17.35
2022-10-22T16:07:37.507Z,17.31
2022-10-22T16:10:07.549Z,17.22
2022-10-22T16:12:36.675Z,17.13
2022-10-22T16:15:05.223Z,17.01
2022-10-22T16:17:32.825Z,16.89
2022-10-22T16:20:00.476Z,16.77
2022-10-22T16:22:28.111Z,16.67
2022-10-22T16:24:55.611Z,16.60
2022-10-22T16:27:23.243Z,16.44
2022-10-22T16:29:52.175Z,16.38
2022-10-22T16:32:20.195Z,16.28
2022-10-22T16:34:47.835Z,16.24
2022-10-22T16:37:15.410Z,16.14
2022-10-22T16:39:43.049Z,16.06
2022-10-22T16:42:10.576Z,16.01
2022-10-22T16:44:38.235Z,15.94
2022-10-22T16:47:07.205Z,15.89
2022-10-22T16:49:37.144Z,15.82
2022-10-22T16:52:05.275Z,15.77
2022-10-22T16:54:32.828Z,15.72
2022-10-22T16:57:00.403Z,15.66
2022-10-22T16:59:28.041Z,15.64
2022-10-22T17:01:55.802Z,15.64
2022-10-22T17:04:25.007Z,15.62
2022-10-22T17:06:52.807Z,15.59
2022-10-22T17:09:20.596Z,15.60
2022-10-22T17:11:48.299Z,15.58
2022-10-22T17:14:15.934Z,15.54
2022-10-22T17:16:44.773Z,15.52
2022-10-22T17:19:17.397Z,15.51
2022-10-22T17:21:46.418Z,15.41
2022-10-22T17:24:14.036Z,15.39
2022-10-22T17:26:41.636Z,15.32
2022-10-22T17:29:09.198Z,15.25
2022-10-22T17:31:37.988Z,15.19
2022-10-22T17:34:06.811Z,15.16
2022-10-22T17:36:37.110Z,15.17
2022-10-22T17:39:08.151Z,15.20
2022-10-22T17:41:37.926Z,15.15
2022-10-22T17:44:08.744Z,15.14
2022-10-22T17:46:36.600Z,15.12
2022-10-22T17:49:06.868Z,15.10
2022-10-22T17:51:34.680Z,15.09
2022-10-22T17:54:04.627Z,15.08
2022-10-22T17:56:36.989Z,15.10
2022-10-22T17:59:04.710Z,15.03
2022-10-22T18:01:34.803Z,15.01
2022-10-22T18:04:05.682Z,14.96
2022-10-22T18:06:34.477Z,14.96
2022-10-22T18:09:05.005Z,14.91
2022-10-22T18:11:32.913Z,14.92
2022-10-22T18:14:01.931Z,14.89
2022-10-22T18:16:29.610Z,14.88
2022-10-22T18:18:58.423Z,14.85
2022-10-22T18:21:28.588Z,14.87
2022-10-22T18:23:57.679Z,14.88
2022-10-22T18:26:26.933Z,14.93
2022-10-22T18:28:55.163Z,14.96
2022-10-22T18:31:25.753Z,14.97
2022-10-22T18:36:28.066Z,15.09
2022-10-22T18:38:58.674Z,15.02
2022-10-22T18:41:27.582Z,15.05
2022-10-22T18:43:56.890Z,15.05
2022-10-22T18:46:26.387Z,15.04
2022-10-22T18:48:54.249Z,15.02
2022-10-22T18:51:22.253Z,14.98
2022-10-22T18:54:04.526Z,14.96
2022-10-22T18:56:39.737Z,15.02
2022-10-22T18:59:07.395Z,14.94
2022-10-22T19:01:36.364Z,14.89
2022-10-22T19:04:03.943Z,14.84
2022-10-22T19:06:34.440Z,14.79
2022-10-22T19:09:05.069Z,14.74
2022-10-22T19:11:33.837Z,14.65
2022-10-22T19:14:01.490Z,14.61
2022-10-22T19:16:29.189Z,14.57
2022-10-22T19:19:03.090Z,14.56
2022-10-22T19:21:31.131Z,14.53
2022-10-22T19:23:59.237Z,14.54
2022-10-22T19:26:28.534Z,14.57
2022-10-22T19:28:56.992Z,14.52
2022-10-22T19:31:26.584Z,14.46
2022-10-22T19:33:55.456Z,14.45
2022-10-22T19:36:27.482Z,14.37
2022-10-22T19:38:55.584Z,14.29
2022-10-22T19:41:24.940Z,14.21
2022-10-22T19:43:54.463Z,14.16
2022-10-22T19:46:23.431Z,14.14
2022-10-22T19:48:52.295Z,14.10
2022-10-22T19:51:21.750Z,14.07
2022-10-22T19:53:51.633Z,14.02
2022-10-22T19:56:21.197Z,13.96
2022-10-22T19:58:49.049Z,13.93
2022-10-22T20:01:18.372Z,13.89
2022-10-22T20:03:46.640Z,13.92
2022-10-22T20:06:18.199Z,13.97
2022-10-22T20:08:46.747Z,14.07
2022-10-22T20:11:19.891Z,13.97
2022-10-22T20:13:51.441Z,13.93
2022-10-22T20:16:23.512Z,13.92
2022-10-22T20:18:51.100Z,13.93
2022-10-22T20:21:19.992Z,13.93
2022-10-22T20:23:48.625Z,13.96
2022-10-22T20:26:17.711Z,13.87
2022-10-22T20:28:45.334Z,13.87
2022-10-22T20:31:14.209Z,13.88
2022-10-22T20:33:41.903Z,13.91
2022-10-22T20:36:14.157Z,13.92
2022-10-22T20:38:41.713Z,13.76
2022-10-22T20:41:12.349Z,13.70
2022-10-22T20:43:41.234Z,13.66
2022-10-22T20:46:08.860Z,13.55
2022-10-22T20:48:36.412Z,13.53
2022-10-22T20:51:04.881Z,13.47
2022-10-22T20:53:32.581Z,13.52
2022-10-22T20:56:00.179Z,13.48
2022-10-22T20:58:30.542Z,13.59
2022-10-22T21:01:05.344Z,13.62
2022-10-22T21:06:01.483Z,13.60
2022-10-22T21:08:29.070Z,13.62
2022-10-22T21:10:56.551Z,13.64
2022-10-22T21:13:24.106Z,13.60
2022-10-22T21:15:51.764Z,13.63
2022-10-22T21:18:20.623Z,13.53
2022-10-22T21:20:48.230Z,13.48
2022-10-22T21:23:16.041Z,13.47
2022-10-22T21:25:54.765Z,13.34
2022-10-22T21:28:22.527Z,13.38
2022-10-22T21:30:50.253Z,13.24
2022-10-22T21:33:17.854Z,13.17
2022-10-22T21:35:52.778Z,13.17
2022-10-22T21:38:22.259Z,13.17
2022-10-22T21:40:50.146Z,13.17
2022-10-22T21:43:18.576Z,13.18
2022-10-22T21:45:46.388Z,13.20
2022-10-22T21:48:14.604Z,13.24
2022-10-22T21:50:43.677Z,13.18
2022-10-22T21:53:13.257Z,13.24
2022-10-22T21:55:41.499Z,13.23
2022-10-22T21:58:09.211Z,13.20
2022-10-22T22:00:37.150Z,13.22
2022-10-22T22:03:07.646Z,13.12
2022-10-22T22:05:35.264Z,13.10
2022-10-22T22:08:02.897Z,13.11
2022-10-22T22:10:32.157Z,13.11
2022-10-22T22:12:59.805Z,12.98
2022-10-22T22:15:28.468Z,12.95
2022-10-22T22:17:56.011Z,12.94
2022-10-22T22:20:23.708Z,12.85
2022-10-22T22:22:51.299Z,12.87
2022-10-22T22:25:18.934Z,12.93
2022-10-22T22:27:47.968Z,13.07
2022-10-22T22:30:17.801Z,13.00
2022-10-22T22:32:45.399Z,12.91
2022-10-22T22:35:12.973Z,12.81
2022-10-22T22:37:41.206Z,12.90
2022-10-22T22:40:09.929Z,12.84
2022-10-22T22:42:37.611Z,12.87
2022-10-22T22:45:07.349Z,12.92
2022-10-22T22:47:34.961Z,12.90
2022-10-22T22:50:02.618Z,12.98
2022-10-22T22:52:30.142Z,12.94
2022-10-22T22:54:57.719Z,12.84
2022-10-22T22:57:25.381Z,12.76
2022-10-22T22:59:53.294Z,12.72
2022-10-22T23:02:22.243Z,12.73
2022-10-22T23:04:49.834Z,12.78
2022-10-22T23:07:17.419Z,12.69
2022-10-22T23:09:45.093Z,12.71
2022-10-22T23:12:12.664Z,12.63
2022-10-22T23:14:40.250Z,12.64
2022-10-22T23:17:07.833Z,12.66
2022-10-22T23:19:36.728Z,12.64
2022-10-22T23:22:04.266Z,12.68
2022-10-22T23:24:31.891Z,12.59
2022-10-22T23:27:02.256Z,12.64
2022-10-22T23:29:31.814Z,12.69
2022-10-22T23:32:01.849Z,12.70
2022-10-22T23:34:30.365Z,12.63
2022-10-22T23:37:00.437Z,12.65
2022-10-22T23:39:29.680Z,12.59
2022-10-22T23:41:57.935Z,12.54
2022-10-22T23:44:26.098Z,12.52
2022-10-22T23:46:53.619Z,12.49
2022-10-22T23:49:21.154Z,12.43
2022-10-22T23:51:48.703Z,12.46
2022-10-22T23:54:18.728Z,12.39
2022-10-22T23:56:46.828Z,12.33
